Observation data for Amherst on 10/13/2019      Previous  Date       Current Mesonet Observations  Soil Data  Daily Summary Page  Observations in Plain Language
KAMH 130500Z 20007KT 11/02 A2999 RMK A01 T01060018  RH  055%=      5-min Rain = 0
KAMH 130505Z 20009KT 10/02 A2999 RMK A01 T01030019  RH  057%=      5-min Rain = 0
KAMH 130510Z 20009KT 10/02 A2999 RMK A01 T01030019  RH  057%=      5-min Rain = 0
KAMH 130515Z 20008KT 10/02 A2999 RMK A01 T01040018  RH  056%=      5-min Rain = 0
KAMH 130520Z 20008KT 11/02 A2999 RMK A01 T01050018  RH  056%=      5-min Rain = 0
KAMH 130525Z 20009KT 10/02 A2999 RMK A01 T01040018  RH  056%=      5-min Rain = 0
KAMH 130530Z 20009KT 10/02 A2998 RMK A01 T01020019  RH  057%=      5-min Rain = 0
KAMH 130535Z 20010KT 10/02 A2998 RMK A01 T01020019  RH  057%=      5-min Rain = 0
KAMH 130540Z 20011KT 11/02 A2998 RMK A01 T01060018  RH  055%=      5-min Rain = 0
KAMH 130545Z 20010KT 11/02 A2998 RMK A01 T01090018  RH  054%=      5-min Rain = 0
KAMH 130550Z 20010KT 11/02 A2998 RMK A01 T01090017  RH  054%=      5-min Rain = 0
KAMH 130555Z 20010KT 11/02 A2998 RMK A01 T01090017  RH  054%=      5-min Rain = 0
KAMH 130600Z 20010KT 11/02 A2998 RMK A01 T01090018  RH  054%=      5-min Rain = 0
KAMH 130605Z 21010KT 11/02 A2998 RMK A01 T01090017  RH  054%=      5-min Rain = 0
KAMH 130610Z 21009KT 11/02 A2999 RMK A01 T01090017  RH  054%=      5-min Rain = 0
KAMH 130615Z 21011KT 11/02 A2999 RMK A01 T01080017  RH  054%=      5-min Rain = 0
KAMH 130620Z 20011KT 11/02 A2998 RMK A01 T01090017  RH  054%=      5-min Rain = 0
KAMH 130625Z 20011KT 11/02 A2998 RMK A01 T01080017  RH  054%=      5-min Rain = 0
KAMH 130630Z 20012KT 11/02 A2998 RMK A01 T01070016  RH  054%=      5-min Rain = 0
KAMH 130635Z 20011KT 11/02 A2998 RMK A01 T01070017  RH  054%=      5-min Rain = 0
KAMH 130640Z 20010KT 11/02 A2998 RMK A01 T01060016  RH  055%=      5-min Rain = 0
KAMH 130645Z 21008KT 11/02 A2998 RMK A01 T01050016  RH  055%=      5-min Rain = 0
KAMH 130650Z 22008KT 10/02 A2998 RMK A01 T01040016  RH  055%=      5-min Rain = 0
KAMH 130655Z 22007KT 10/02 A2998 RMK A01 T01020015  RH  056%=      5-min Rain = 0
KAMH 130700Z 22008KT 10/02 A2998 RMK A01 T00990015  RH  057%=      5-min Rain = 0
KAMH 130705Z 22008KT 10/02 A2998 RMK A01 T00980016  RH  057%=      5-min Rain = 0
KAMH 130710Z 24006KT 10/01 A2999 RMK A01 T01000014  RH  056%=      5-min Rain = 0
KAMH 130715Z 26005KT 10/02 A2999 RMK A01 T00960016  RH  058%=      5-min Rain = 0
KAMH 130720Z 25005KT 09/02 A2999 RMK A01 T00870018  RH  063%=      5-min Rain = 0
KAMH 130725Z 24006KT 08/02 A2999 RMK A01 T00830019  RH  065%=      5-min Rain = 0
KAMH 130730Z 23006KT 09/02 A2999 RMK A01 T00880017  RH  062%=      5-min Rain = 0
KAMH 130735Z 24006KT 09/02 A2999 RMK A01 T00890015  RH  061%=      5-min Rain = 0
KAMH 130740Z 25005KT 09/02 A2999 RMK A01 T00880016  RH  061%=      5-min Rain = 0
KAMH 130745Z 25004KT 08/02 A2999 RMK A01 T00840017  RH  064%=      5-min Rain = 0
KAMH 130750Z 24005KT 08/02 A2999 RMK A01 T00820018  RH  065%=      5-min Rain = 0
KAMH 130755Z 23006KT 08/02 A2999 RMK A01 T00810019  RH  066%=      5-min Rain = 0
KAMH 130800Z 21008KT 08/02 A2998 RMK A01 T00810020  RH  067%=      5-min Rain = 0
KAMH 130805Z 22006KT 09/02 A2998 RMK A01 T00890018  RH  062%=      5-min Rain = 0
KAMH 130810Z 23008KT 10/02 A2998 RMK A01 T00960015  RH  058%=      5-min Rain = 0
KAMH 130815Z 23010KT 10/02 A2998 RMK A01 T00990015  RH  057%=      5-min Rain = 0
KAMH 130820Z 22009KT 10/02 A2998 RMK A01 T01000015  RH  056%=      5-min Rain = 0
KAMH 130825Z 23008KT 10/01 A2998 RMK A01 T00990014  RH  056%=      5-min Rain = 0
KAMH 130830Z 24007KT 10/01 A2998 RMK A01 T01000014  RH  056%=      5-min Rain = 0
KAMH 130835Z 23008KT 10/02 A2998 RMK A01 T00990015  RH  057%=      5-min Rain = 0
KAMH 130840Z 23008KT 10/02 A2998 RMK A01 T00980015  RH  057%=      5-min Rain = 0
KAMH 130845Z 23007G12KT 10/02 A2998 RMK A01 T00970015  RH  057%=      5-min Rain = 0
KAMH 130850Z 22009KT 10/02 A2997 RMK A01 T00970015  RH  057%=      5-min Rain = 0
KAMH 130855Z 23007KT 10/02 A2997 RMK A01 T00960015  RH  058%=      5-min Rain = 0
KAMH 130900Z 23007KT 10/02 A2997 RMK A01 T00950016  RH  058%=      5-min Rain = 0
KAMH 130905Z 23008KT 09/02 A2997 RMK A01 T00940015  RH  059%=      5-min Rain = 0
KAMH 130910Z 22007KT 09/02 A2997 RMK A01 T00900016  RH  061%=      5-min Rain = 0
KAMH 130915Z 24006KT 09/02 A2997 RMK A01 T00890017  RH  061%=      5-min Rain = 0
KAMH 130920Z 24006KT 09/02 A2997 RMK A01 T00880017  RH  062%=      5-min Rain = 0
KAMH 130925Z 24006KT 08/02 A2997 RMK A01 T00840018  RH  064%=      5-min Rain = 0
KAMH 130930Z 24006KT 08/02 A2997 RMK A01 T00800019  RH  066%=      5-min Rain = 0
KAMH 130935Z 23006KT 08/02 A2996 RMK A01 T00790020  RH  067%=      5-min Rain = 0
KAMH 130940Z 25004KT 08/02 A2997 RMK A01 T00770020  RH  068%=      5-min Rain = 0
KAMH 130945Z 27003KT 07/02 A2997 RMK A01 T00740022  RH  071%=      5-min Rain = 0
KAMH 130950Z 24003KT 07/02 A2997 RMK A01 T00690023  RH  074%=      5-min Rain = 0
KAMH 130955Z 23004KT 07/02 A2997 RMK A01 T00690023  RH  074%=      5-min Rain = 0
KAMH 131000Z 23005KT 07/02 A2997 RMK A01 T00700023  RH  073%=      5-min Rain = 0
KAMH 131005Z 22006KT 07/02 A2996 RMK A01 T00700023  RH  073%=      5-min Rain = 0
KAMH 131010Z 22006KT 07/02 A2996 RMK A01 T00730023  RH  071%=      5-min Rain = 0
KAMH 131015Z 22005KT 07/02 A2996 RMK A01 T00740023  RH  071%=      5-min Rain = 0
KAMH 131020Z 23002KT 08/02 A2997 RMK A01 T00750022  RH  070%=      5-min Rain = 0
KAMH 131025Z 26002KT 08/02 A2997 RMK A01 T00750021  RH  070%=      5-min Rain = 0
KAMH 131030Z 26004KT 07/02 A2997 RMK A01 T00720022  RH  071%=      5-min Rain = 0
KAMH 131035Z 26003KT 07/02 A2996 RMK A01 T00680023  RH  074%=      5-min Rain = 0
KAMH 131040Z 27002KT 06/02 A2996 RMK A01 T00620024  RH  078%=      5-min Rain = 0
KAMH 131045Z 24003KT 06/02 A2996 RMK A01 T00610024  RH  079%=      5-min Rain = 0
KAMH 131050Z 31003KT 06/03 A2997 RMK A01 T00580025  RH  080%=      5-min Rain = 0
KAMH 131055Z 26004KT 06/03 A2996 RMK A01 T00550026  RH  083%=      5-min Rain = 0
KAMH 131100Z 26005KT 06/03 A2996 RMK A01 T00570026  RH  081%=      5-min Rain = 0
KAMH 131105Z 25004KT 06/03 A2997 RMK A01 T00580026  RH  081%=      5-min Rain = 0
KAMH 131110Z 24004KT 06/03 A2997 RMK A01 T00580026  RH  081%=      5-min Rain = 0
KAMH 131115Z 24004KT 06/03 A2997 RMK A01 T00620027  RH  080%=      5-min Rain = 0
KAMH 131120Z 26003KT 06/03 A2997 RMK A01 T00640025  RH  077%=      5-min Rain = 0
KAMH 131125Z 25003KT 06/03 A2997 RMK A01 T00620026  RH  079%=      5-min Rain = 0
KAMH 131130Z 27003KT 06/03 A2997 RMK A01 T00620027  RH  080%=      5-min Rain = 0
KAMH 131135Z 29005KT 06/03 A2997 RMK A01 T00590026  RH  081%=      5-min Rain = 0
KAMH 131140Z 30005KT 06/03 A2997 RMK A01 T00550027  RH  084%=      5-min Rain = 0
KAMH 131145Z 31004KT 05/03 A2998 RMK A01 T00530027  RH  085%=      5-min Rain = 0
KAMH 131150Z 32004KT 05/03 A2998 RMK A01 T00520027  RH  085%=      5-min Rain = 0
KAMH 131155Z 31003KT 06/03 A2998 RMK A01 T00550028  RH  084%=      5-min Rain = 0
KAMH 131200Z 31003KT 06/03 A2997 RMK A01 T00590028  RH  082%=      5-min Rain = 0
KAMH 131205Z 32003KT 06/03 A2997 RMK A01 T00620027  RH  079%=      5-min Rain = 0
KAMH 131210Z 33003KT 06/03 A2997 RMK A01 T00620026  RH  079%=      5-min Rain = 0
KAMH 131215Z 31002KT 06/03 A2997 RMK A01 T00610027  RH  080%=      5-min Rain = 0
KAMH 131220Z 33002KT 06/03 A2998 RMK A01 T00590027  RH  081%=      5-min Rain = 0
KAMH 131225Z 32002KT 06/03 A2998 RMK A01 T00580027  RH  082%=      5-min Rain = 0
KAMH 131230Z 35004KT 06/03 A2998 RMK A01 T00570027  RH  083%=      5-min Rain = 0
KAMH 131235Z 33004KT 05/03 A2998 RMK A01 T00540026  RH  084%=      5-min Rain = 0
KAMH 131240Z 30004KT 05/03 A2998 RMK A01 T00530026  RH  084%=      5-min Rain = 0
KAMH 131245Z 31004KT 05/03 A2998 RMK A01 T00520026  RH  085%=      5-min Rain = 0
KAMH 131250Z 33003KT 05/03 A2998 RMK A01 T00510026  RH  085%=      5-min Rain = 0
KAMH 131255Z 35004KT 05/03 A2998 RMK A01 T00510026  RH  086%=      5-min Rain = 0
KAMH 131300Z 29001KT 05/02 A2998 RMK A01 T00460022  RH  086%=      5-min Rain = 0
KAMH 131305Z 17001KT 04/03 A2998 RMK A01 T00440025  RH  089%=      5-min Rain = 0
KAMH 131310Z 23001KT 05/03 A2998 RMK A01 T00470029  RH  089%=      5-min Rain = 0
KAMH 131315Z 27002KT 05/03 A2998 RMK A01 T00520031  RH  088%=      5-min Rain = 0
KAMH 131320Z 29003KT 06/03 A2998 RMK A01 T00560033  RH  086%=      5-min Rain = 0
KAMH 131325Z 29003KT 06/04 A2998 RMK A01 T00620036  RH  085%=      5-min Rain = 0
KAMH 131330Z 29004KT 07/04 A2998 RMK A01 T00660037  RH  083%=      5-min Rain = 0
KAMH 131335Z 29004KT 07/04 A2998 RMK A01 T00710038  RH  081%=      5-min Rain = 0
KAMH 131340Z 29004KT 08/04 A2998 RMK A01 T00750039  RH  080%=      5-min Rain = 0
KAMH 131345Z 30004KT 08/04 A2998 RMK A01 T00820042  RH  078%=      5-min Rain = 0
KAMH 131350Z 29003KT 09/04 A2998 RMK A01 T00880042  RH  075%=      5-min Rain = 0
KAMH 131355Z 27004KT 10/05 A2999 RMK A01 T00950045  RH  072%=      5-min Rain = 0
KAMH 131400Z 27005KT 11/04 A2999 RMK A01 T01070044  RH  067%=      5-min Rain = 0
KAMH 131405Z 26004KT 11/04 A2999 RMK A01 T01140044  RH  063%=      5-min Rain = 0
KAMH 131410Z 27003KT 12/05 A2999 RMK A01 T01180046  RH  063%=      5-min Rain = 0
KAMH 131415Z 26003KT 12/05 A2999 RMK A01 T01230051  RH  063%=      5-min Rain = 0
KAMH 131420Z 26005KT 13/05 A2999 RMK A01 T01320052  RH  060%=      5-min Rain = 0
KAMH 131425Z 26005KT 14/05 A2999 RMK A01 T01370046  RH  055%=      5-min Rain = 0
KAMH 131430Z 27004KT 14/05 A30 RMK A01 T01420048  RH  054%=      5-min Rain = 0
KAMH 131435Z 27007KT 15/05 A30 RMK A01 T01500048  RH  052%=      5-min Rain = 0
KAMH 131440Z 28010KT 16/04 A30 RMK A01 T01600039  RH  045%=      5-min Rain = 0
KAMH 131445Z 28010KT 16/04 A30 RMK A01 T01630037  RH  044%=      5-min Rain = 0
KAMH 131450Z 28010KT 16/04 A30 RMK A01 T01640037  RH  043%=      5-min Rain = 0
KAMH 131455Z 28010KT 17/04 A30 RMK A01 T01680038  RH  043%=      5-min Rain = 0
KAMH 131500Z 30010KT 17/04 A30 RMK A01 T01720039  RH  042%=      5-min Rain = 0
KAMH 131505Z 30013KT 17/04 A30 RMK A01 T01720036  RH  041%=      5-min Rain = 0
KAMH 131510Z 30011KT 17/04 A3001 RMK A01 T01730037  RH  041%=      5-min Rain = 0
KAMH 131515Z 30013KT 18/04 A3001 RMK A01 T01760038  RH  041%=      5-min Rain = 0
KAMH 131520Z 30014KT 18/04 A3001 RMK A01 T01770037  RH  040%=      5-min Rain = 0
KAMH 131525Z 29014KT 18/04 A3001 RMK A01 T01790037  RH  040%=      5-min Rain = 0
KAMH 131530Z 29013G18KT 18/04 A3001 RMK A01 T01830040  RH  039%=      5-min Rain = 0
KAMH 131535Z 29014KT 19/04 A3001 RMK A01 T01870039  RH  038%=      5-min Rain = 0
KAMH 131540Z 29011KT 19/04 A3001 RMK A01 T01910043  RH  038%=      5-min Rain = 0
KAMH 131545Z 29010KT 19/04 A3001 RMK A01 T01940044  RH  038%=      5-min Rain = 0
KAMH 131550Z 30010KT 20/05 A3001 RMK A01 T02000046  RH  037%=      5-min Rain = 0
KAMH 131555Z 29013KT 20/04 A3001 RMK A01 T02000043  RH  036%=      5-min Rain = 0
KAMH 131600Z 29014KT 20/04 A3001 RMK A01 T02020040  RH  035%=      5-min Rain = 0
KAMH 131605Z 29012G17KT 20/04 A3001 RMK A01 T02040041  RH  035%=      5-min Rain = 0
KAMH 131610Z 29012KT 21/04 A3001 RMK A01 T02080041  RH  034%=      5-min Rain = 0
KAMH 131615Z 30011KT 21/04 A3001 RMK A01 T02110043  RH  034%=      5-min Rain = 0
KAMH 131620Z 29012KT 21/04 A3001 RMK A01 T02140043  RH  033%=      5-min Rain = 0
KAMH 131625Z 30012G17KT 22/04 A3001 RMK A01 T02180044  RH  033%=      5-min Rain = 0
KAMH 131630Z 29012G17KT 22/04 A3001 RMK A01 T02210043  RH  032%=      5-min Rain = 0
KAMH 131635Z 30012KT 23/05 A3001 RMK A01 T02260045  RH  031%=      5-min Rain = 0
KAMH 131640Z 30011KT 23/04 A30 RMK A01 T02290044  RH  031%=      5-min Rain = 0
KAMH 131645Z 29013KT 23/04 A3001 RMK A01 T02320040  RH  029%=      5-min Rain = 0
KAMH 131650Z 30012KT 23/04 A3001 RMK A01 T02340039  RH  029%=      5-min Rain = 0
KAMH 131655Z 30012KT 24/04 A3001 RMK A01 T02370040  RH  028%=      5-min Rain = 0
KAMH 131700Z 29010KT 24/04 A3001 RMK A01 T02390040  RH  028%=      5-min Rain = 0
KAMH 131705Z 29011KT 24/04 A30 RMK A01 T02400040  RH  028%=      5-min Rain = 0
KAMH 131710Z 30011KT 25/04 A30 RMK A01 T02450040  RH  027%=      5-min Rain = 0
KAMH 131715Z 28011KT 25/04 A30 RMK A01 T02470039  RH  026%=      5-min Rain = 0
KAMH 131720Z 28012KT 25/04 A30 RMK A01 T02520036  RH  025%=      5-min Rain = 0
KAMH 131725Z 28013G18KT 25/03 A30 RMK A01 T02530032  RH  024%=      5-min Rain = 0
KAMH 131730Z 28015KT 25/02 A30 RMK A01 T02530022  RH  023%=      5-min Rain = 0
KAMH 131735Z 28014KT 26/02 A30 RMK A01 T02550022  RH  022%=      5-min Rain = 0
KAMH 131740Z 29013G19KT 26/02 A30 RMK A01 T02600022  RH  022%=      5-min Rain = 0
KAMH 131745Z 28014G20KT 26/02 A30 RMK A01 T02580017  RH  021%=      5-min Rain = 0
KAMH 131750Z 28015G20KT 26/01 A30 RMK A01 T02600012  RH  020%=      5-min Rain = 0
KAMH 131755Z 28014G19KT 26/01 A30 RMK A01 T02610009  RH  020%=      5-min Rain = 0
KAMH 131800Z 29013KT 26/01 A2999 RMK A01 T02630011  RH  020%=      5-min Rain = 0
KAMH 131805Z 28013KT 27/01 A2999 RMK A01 T02650013  RH  020%=      5-min Rain = 0
KAMH 131810Z 28013G18KT 27/01 A2999 RMK A01 T02660007  RH  019%=      5-min Rain = 0
KAMH 131815Z 28013KT 27/01 A2999 RMK A01 T02670011  RH  019%=      5-min Rain = 0
KAMH 131820Z 29014G21KT 27/01 A2999 RMK A01 T02680009  RH  019%=      5-min Rain = 0
KAMH 131825Z 29014G19KT 27/M00 A2999 RMK A01 T02681001  RH  018%=      5-min Rain = 0
KAMH 131830Z 29014KT 27/00 A2999 RMK A01 T02700001  RH  017%=      5-min Rain = 0
KAMH 131835Z 28015G21KT 27/M01 A2998 RMK A01 T02701010  RH  016%=      5-min Rain = 0
KAMH 131840Z 29014G21KT 27/M01 A2998 RMK A01 T02721009  RH  016%=      5-min Rain = 0
KAMH 131845Z 29014G19KT 27/M00 A2998 RMK A01 T02701002  RH  017%=      5-min Rain = 0
KAMH 131850Z 29013G19KT 27/00 A2998 RMK A01 T027100-0  RH  017%=      5-min Rain = 0
KAMH 131855Z 27015G20KT 27/00 A2998 RMK A01 T02710001  RH  017%=      5-min Rain = 0
KAMH 131900Z 29013G18KT 27/01 A2998 RMK A01 T02730005  RH  018%=      5-min Rain = 0
KAMH 131905Z 28011G21KT 28/01 A2997 RMK A01 T02760010  RH  018%=      5-min Rain = 0
KAMH 131910Z 27014KT 28/M00 A2997 RMK A01 T02751001  RH  017%=      5-min Rain = 0
KAMH 131915Z 27012G17KT 28/00 A2997 RMK A01 T02760004  RH  017%=      5-min Rain = 0
KAMH 131920Z 28013G20KT 28/M00 A2996 RMK A01 T02771001  RH  017%=      5-min Rain = 0
KAMH 131925Z 28012G17KT 28/00 A2996 RMK A01 T02800001  RH  016%=      5-min Rain = 0
KAMH 131930Z 27013G21KT 28/M01 A2996 RMK A01 T02781009  RH  015%=      5-min Rain = 0
KAMH 131935Z 26012G18KT 28/M01 A2996 RMK A01 T02781005  RH  016%=      5-min Rain = 0
KAMH 131940Z 27013KT 28/M01 A2996 RMK A01 T02801007  RH  016%=      5-min Rain = 0
KAMH 131945Z 25012G19KT 28/M01 A2996 RMK A01 T02791011  RH  015%=      5-min Rain = 0
KAMH 131950Z 26012G19KT 28/M01 A2995 RMK A01 T02781013  RH  015%=      5-min Rain = 0
KAMH 131955Z 27011KT 28/M01 A2995 RMK A01 T02791012  RH  015%=      5-min Rain = 0
KAMH 132000Z 28011G16KT 28/M01 A2995 RMK A01 T02811009  RH  015%=      5-min Rain = 0
KAMH 132005Z 27015KT 28/M02 A2995 RMK A01 T02811019  RH  014%=      5-min Rain = 0
KAMH 132010Z 26013G18KT 28/M02 A2995 RMK A01 T02791019  RH  014%=      5-min Rain = 0
KAMH 132015Z 27013G18KT 28/M02 A2995 RMK A01 T02801015  RH  015%=      5-min Rain = 0
KAMH 132020Z 28011KT 28/M02 A2995 RMK A01 T02811016  RH  014%=      5-min Rain = 0
KAMH 132025Z 28013G18KT 28/M01 A2994 RMK A01 T02801013  RH  015%=      5-min Rain = 0
KAMH 132030Z 27013KT 28/M02 A2994 RMK A01 T02801018  RH  014%=      5-min Rain = 0
KAMH 132035Z 26012G17KT 28/M01 A2994 RMK A01 T02791010  RH  015%=      5-min Rain = 0
KAMH 132040Z 27012G17KT 28/M01 A2994 RMK A01 T02791012  RH  015%=      5-min Rain = 0
KAMH 132045Z 27010G17KT 28/M01 A2994 RMK A01 T02791013  RH  015%=      5-min Rain = 0
KAMH 132050Z 28011KT 28/M02 A2994 RMK A01 T02811018  RH  014%=      5-min Rain = 0
KAMH 132055Z 26013KT 28/M02 A2994 RMK A01 T02801017  RH  014%=      5-min Rain = 0
KAMH 132100Z 25011G17KT 28/M02 A2994 RMK A01 T02781021  RH  014%=      5-min Rain = 0
KAMH 132105Z 25009KT 28/M02 A2994 RMK A01 T02791016  RH  015%=      5-min Rain = 0
KAMH 132110Z 26012G18KT 28/M01 A2994 RMK A01 T02811011  RH  015%=      5-min Rain = 0
KAMH 132115Z 26012G17KT 28/M02 A2994 RMK A01 T02791018  RH  014%=      5-min Rain = 0
KAMH 132120Z 27011G16KT 28/M02 A2994 RMK A01 T02791018  RH  014%=      5-min Rain = 0
KAMH 132125Z 26010G15KT 28/M02 A2994 RMK A01 T02791018  RH  014%=      5-min Rain = 0
KAMH 132130Z 24011G16KT 28/M02 A2994 RMK A01 T02771022  RH  014%=      5-min Rain = 0
KAMH 132135Z 24011KT 28/M02 A2994 RMK A01 T02771019  RH  015%=      5-min Rain = 0
KAMH 132140Z 25011G16KT 28/M02 A2994 RMK A01 T02761020  RH  014%=      5-min Rain = 0
KAMH 132145Z 25010KT 28/M02 A2995 RMK A01 T02771021  RH  014%=      5-min Rain = 0
KAMH 132150Z 24009KT 28/M02 A2995 RMK A01 T02771022  RH  014%=      5-min Rain = 0
KAMH 132155Z 25010KT 28/M01 A2995 RMK A01 T02771013  RH  015%=      5-min Rain = 0
KAMH 132200Z 23011KT 28/M02 A2995 RMK A01 T02761022  RH  014%=      5-min Rain = 0
KAMH 132205Z 24009G16KT 28/M02 A2995 RMK A01 T02751020  RH  014%=      5-min Rain = 0
KAMH 132210Z 26012KT 28/M02 A2995 RMK A01 T02751020  RH  015%=      5-min Rain = 0
KAMH 132215Z 25009G15KT 28/M02 A2995 RMK A01 T02751021  RH  014%=      5-min Rain = 0
KAMH 132220Z 24011G16KT 27/M03 A2995 RMK A01 T02731026  RH  014%=      5-min Rain = 0
KAMH 132225Z 24010KT 27/M02 A2995 RMK A01 T02731020  RH  015%=      5-min Rain = 0
KAMH 132230Z 26009KT 27/M02 A2995 RMK A01 T02721019  RH  015%=      5-min Rain = 0
KAMH 132235Z 25010G15KT 27/M01 A2995 RMK A01 T02721012  RH  016%=      5-min Rain = 0
KAMH 132240Z 25009KT 27/M03 A2995 RMK A01 T02701028  RH  014%=      5-min Rain = 0
KAMH 132245Z 25007G12KT 27/M01 A2995 RMK A01 T02711009  RH  016%=      5-min Rain = 0
KAMH 132250Z 24010KT 27/M01 A2995 RMK A01 T02681013  RH  016%=      5-min Rain = 0
KAMH 132255Z 24007KT 27/M01 A2995 RMK A01 T02671006  RH  017%=      5-min Rain = 0
KAMH 132300Z 25009KT 27/M01 A2995 RMK A01 T02651012  RH  016%=      5-min Rain = 0
KAMH 132305Z 24008KT 26/M02 A2995 RMK A01 T02631016  RH  016%=      5-min Rain = 0
KAMH 132310Z 24008KT 26/M01 A2995 RMK A01 T02631012  RH  017%=      5-min Rain = 0
KAMH 132315Z 24007KT 26/M01 A2996 RMK A01 T02611006  RH  017%=      5-min Rain = 0
KAMH 132320Z 25007KT 26/M00 A2996 RMK A01 T02591001  RH  018%=      5-min Rain = 0
KAMH 132325Z 25006KT 26/00 A2995 RMK A01 T02570000  RH  019%=      5-min Rain = 0
KAMH 132330Z 25007KT 26/01 A2996 RMK A01 T02550005  RH  020%=      5-min Rain = 0
KAMH 132335Z 24006KT 25/01 A2996 RMK A01 T02520006  RH  020%=      5-min Rain = 0
KAMH 132340Z 24005KT 25/01 A2996 RMK A01 T02490012  RH  021%=      5-min Rain = 0
KAMH 132345Z 24006KT 24/01 A2996 RMK A01 T02440010  RH  022%=      5-min Rain = 0
KAMH 132350Z 24006KT 24/01 A2996 RMK A01 T02400010  RH  022%=      5-min Rain = 0
KAMH 132355Z 24006KT 24/01 A2996 RMK A01 T02350013  RH  023%=      5-min Rain = 0
KAMH 140000Z 23005KT 23/01 A2996 RMK A01 T02330011  RH  023%=      5-min Rain = 0
KAMH 140005Z 23005KT 23/01 A2996 RMK A01 T02300012  RH  024%=      5-min Rain = 0
KAMH 140010Z 23005KT 22/01 A2996 RMK A01 T02240014  RH  025%=      5-min Rain = 0
KAMH 140015Z 23006KT 22/01 A2997 RMK A01 T02190012  RH  026%=      5-min Rain = 0
KAMH 140020Z 22006KT 21/01 A2997 RMK A01 T02140013  RH  027%=      5-min Rain = 0
KAMH 140025Z 22006KT 21/01 A2997 RMK A01 T02090012  RH  027%=      5-min Rain = 0
KAMH 140030Z 23006KT 21/01 A2997 RMK A01 T02120009  RH  026%=      5-min Rain = 0
KAMH 140035Z 23006KT 21/01 A2997 RMK A01 T02100010  RH  027%=      5-min Rain = 0
KAMH 140040Z 22006KT 21/01 A2997 RMK A01 T02070010  RH  027%=      5-min Rain = 0
KAMH 140045Z 22007KT 20/01 A2998 RMK A01 T02040011  RH  028%=      5-min Rain = 0
KAMH 140050Z 22006KT 20/01 A2998 RMK A01 T02040010  RH  028%=      5-min Rain = 0
KAMH 140055Z 23006KT 21/01 A2998 RMK A01 T02050010  RH  028%=      5-min Rain = 0
KAMH 140100Z 23006KT 20/01 A2998 RMK A01 T02030012  RH  028%=      5-min Rain = 0
KAMH 140105Z 23006KT 20/01 A2998 RMK A01 T02010013  RH  029%=      5-min Rain = 0
KAMH 140110Z 23006KT 20/01 A2998 RMK A01 T02020013  RH  029%=      5-min Rain = 0
KAMH 140115Z 22006KT 20/01 A2998 RMK A01 T02000014  RH  029%=      5-min Rain = 0
KAMH 140120Z 22006KT 20/01 A2998 RMK A01 T02010013  RH  029%=      5-min Rain = 0
KAMH 140125Z 23005KT 19/03 A2998 RMK A01 T01880027  RH  035%=      5-min Rain = 0
KAMH 140130Z 22006KT 18/03 A2998 RMK A01 T01840027  RH  036%=      5-min Rain = 0
KAMH 140135Z 21007KT 19/02 A2998 RMK A01 T01890022  RH  033%=      5-min Rain = 0
KAMH 140140Z 20007KT 18/03 A2998 RMK A01 T01790028  RH  037%=      5-min Rain = 0
KAMH 140145Z 20006KT 18/03 A2998 RMK A01 T01780027  RH  037%=      5-min Rain = 0
KAMH 140150Z 21006KT 18/03 A2998 RMK A01 T01790026  RH  036%=      5-min Rain = 0
KAMH 140155Z 20005KT 18/03 A2998 RMK A01 T01780027  RH  037%=      5-min Rain = 0
KAMH 140200Z 20006KT 17/03 A2998 RMK A01 T01730030  RH  039%=      5-min Rain = 0
KAMH 140205Z 20007KT 17/03 A2998 RMK A01 T01740026  RH  038%=      5-min Rain = 0
KAMH 140210Z 20007KT 18/02 A2998 RMK A01 T01770024  RH  036%=      5-min Rain = 0
KAMH 140215Z 20007KT 18/02 A2999 RMK A01 T01790022  RH  036%=      5-min Rain = 0
KAMH 140220Z 20008KT 18/02 A2999 RMK A01 T01800020  RH  035%=      5-min Rain = 0
KAMH 140225Z 20006KT 18/02 A2998 RMK A01 T01810018  RH  034%=      5-min Rain = 0
KAMH 140230Z 21006KT 17/02 A2999 RMK A01 T01740022  RH  037%=      5-min Rain = 0
KAMH 140235Z 21007KT 17/02 A2999 RMK A01 T01730019  RH  036%=      5-min Rain = 0
KAMH 140240Z 21007KT 18/02 A2999 RMK A01 T01760016  RH  035%=      5-min Rain = 0
KAMH 140245Z 21007KT 18/02 A2999 RMK A01 T01770016  RH  034%=      5-min Rain = 0
KAMH 140250Z 21007KT 17/02 A2999 RMK A01 T01730017  RH  035%=      5-min Rain = 0
KAMH 140255Z 21006KT 17/01 A2999 RMK A01 T01730014  RH  035%=      5-min Rain = 0
KAMH 140300Z 21006KT 17/01 A2999 RMK A01 T01720013  RH  035%=      5-min Rain = 0
KAMH 140305Z 21006KT 17/01 A2999 RMK A01 T01700014  RH  036%=      5-min Rain = 0
KAMH 140310Z 21006KT 17/02 A2999 RMK A01 T01660017  RH  037%=      5-min Rain = 0
KAMH 140315Z 21007KT 17/01 A2999 RMK A01 T01660014  RH  036%=      5-min Rain = 0
KAMH 140320Z 22007KT 17/01 A2999 RMK A01 T01680010  RH  035%=      5-min Rain = 0
KAMH 140325Z 21007KT 17/01 A2999 RMK A01 T01650012  RH  036%=      5-min Rain = 0
KAMH 140330Z 22007KT 16/01 A2999 RMK A01 T01640012  RH  036%=      5-min Rain = 0
KAMH 140335Z 22007KT 17/01 A2999 RMK A01 T01650011  RH  036%=      5-min Rain = 0
KAMH 140340Z 22007KT 16/01 A2999 RMK A01 T01640012  RH  036%=      5-min Rain = 0
KAMH 140345Z 22007KT 16/01 A2999 RMK A01 T01610013  RH  037%=      5-min Rain = 0
KAMH 140350Z 21006KT 16/02 A2999 RMK A01 T01560016  RH  039%=      5-min Rain = 0
KAMH 140355Z 22007KT 16/02 A2999 RMK A01 T01560015  RH  039%=      5-min Rain = 0
KAMH 140400Z 21007KT 16/02 A2999 RMK A01 T01560015  RH  039%=      5-min Rain = 0
KAMH 140405Z 21007KT 15/02 A2999 RMK A01 T01530019  RH  041%=      5-min Rain = 0
KAMH 140410Z 22006KT 15/02 A2999 RMK A01 T01530018  RH  041%=      5-min Rain = 0
KAMH 140415Z 22007KT 15/02 A2999 RMK A01 T01530016  RH  040%=      5-min Rain = 0
KAMH 140420Z 22006KT 15/02 A2999 RMK A01 T01500017  RH  041%=      5-min Rain = 0
KAMH 140425Z 22006KT 15/02 A2999 RMK A01 T01500018  RH  041%=      5-min Rain = 0
KAMH 140430Z 23007KT 15/02 A2999 RMK A01 T01490017  RH  041%=      5-min Rain = 0
KAMH 140435Z 24008KT 15/02 A2999 RMK A01 T01460019  RH  043%=      5-min Rain = 0
KAMH 140440Z 23007KT 15/02 A2999 RMK A01 T01480018  RH  042%=      5-min Rain = 0
KAMH 140445Z 24007KT 15/02 A2999 RMK A01 T01460020  RH  043%=      5-min Rain = 0
KAMH 140450Z 24007KT 14/02 A2999 RMK A01 T01440022  RH  044%=      5-min Rain = 0
KAMH 140455Z 24008KT 14/02 A2999 RMK A01 T01420023  RH  045%=      5-min Rain = 0

Page generated in 0.0236 seconds.